Dover, Canada
Current Conditions -  °F | °C
As of 1:00 AM on Wednesday 28 Jan 2015 (Local Time) from CYQX Reporting Station
Freezing Rain Freezing Rain  
Wind Chill:   Ceiling: 400
Heat Index: 23°   Visibility: 2.5mi
Dew Point: 23°   Wind: 18mph
Humidity: 100%   Direction: 60°ENE
Pressure: 29.92"   Gusts: 28mph
Location:  48.85°N, 53.98°W
Report Text: CYQX 280400Z 06016G24KT 2 1/2SM -FZRA BR OVC004 M05/M05 A2992 RMK FG2SF6 SLP141
Loading
Personal Weather Stations






























Interactive Weather Map New forecast layout! Learn more

10-Day Weather Forecast

Advertisements
Track Severe Weather on mobile